Time;durP1;ratioP1;P1;durP2;ratioP2;P2;SDS_P1;SDS_P2;PMS_P1;PMS_P2;Temp;Humidity;BMP_temperature;BMP_pressure;BME280_temperature;BME280_humidity;BME280_pressure;Samples;Min_cycle;Max_cycle;Signal;HPM_P1;HPM_P2
2021/09/03 00:03:42;;;;;;;0.00;0.00;;;;;;;;;;10397454;28;20241;-70
2021/09/03 00:08:44;;;;;;;0.00;0.00;;;;;;;;;;10391044;28;20209;-70
2021/09/03 00:13:49;;;;;;;0.00;0.00;;;;;;;;;;10397135;28;20275;-72
2021/09/03 00:18:51;;;;;;;0.00;0.00;;;;;;;;;;10396234;28;20189;-73
2021/09/03 00:23:54;;;;;;;0.00;0.00;;;;;;;;;;10398033;28;20228;-69
2021/09/03 00:28:58;;;;;;;0.00;0.00;;;;;;;;;;10396684;28;20241;-70
2021/09/03 00:34:01;;;;;;;0.00;0.00;;;;;;;;;;10388324;28;20605;-71
2021/09/03 00:39:04;;;;;;;0.00;0.00;;;;;;;;;;10395553;28;20198;-68
2021/09/03 00:44:09;;;;;;;0.00;0.00;;;;;;;;;;10394276;28;20271;-69
2021/09/03 00:49:11;;;;;;;0.00;0.00;;;;;;;;;;10396563;28;20201;-69
2021/09/03 00:54:14;;;;;;;0.00;0.00;;;;;;;;;;10396238;28;20228;-69
2021/09/03 00:59:19;;;;;;;0.00;0.00;;;;;;;;;;10393791;28;20634;-69
2021/09/03 01:04:22;;;;;;;0.00;0.00;;;;;;;;;;10393012;28;20308;-71
2021/09/03 01:09:25;;;;;;;0.00;0.00;;;;;;;;;;10392424;28;20213;-69
2021/09/03 01:14:30;;;;;;;0.00;0.00;;;;;;;;;;10393883;28;20216;-69
2021/09/03 01:19:44;;;;;;;0.00;0.00;;;;;;;;;;10392636;28;20282;-71
2021/09/03 01:24:57;;;;;;;0.00;0.00;;;;;;;;;;10393642;28;20241;-71
2021/09/03 01:30:17;;;;;;;0.00;0.00;;;;;;;;;;10412885;28;20227;-70
2021/09/03 01:35:20;;;;;;;0.00;0.00;;;;;;;;;;10391509;28;20346;-71
2021/09/03 01:40:24;;;;;;;0.00;0.00;;;;;;;;;;10407060;28;20289;-69
2021/09/03 01:45:27;;;;;;;0.00;0.00;;;;;;;;;;10394868;28;20249;-71
2021/09/03 01:50:30;;;;;;;0.00;0.00;;;;;;;;;;10394681;28;20205;-69
2021/09/03 01:55:34;;;;;;;0.00;0.00;;;;;;;;;;10397555;28;20228;-70
2021/09/03 02:00:37;;;;;;;0.00;0.00;;;;;;;;;;10394522;28;20566;-71
2021/09/03 02:05:40;;;;;;;0.00;0.00;;;;;;;;;;10386614;28;20248;-70
2021/09/03 02:10:44;;;;;;;0.00;0.00;;;;;;;;;;10387762;28;20704;-70
2021/09/03 02:15:47;;;;;;;0.00;0.00;;;;;;;;;;10393055;28;20335;-70
2021/09/03 02:20:50;;;;;;;0.00;0.00;;;;;;;;;;10392762;28;20280;-70
2021/09/03 02:25:54;;;;;;;0.00;0.00;;;;;;;;;;10394486;28;20221;-71
2021/09/03 02:30:57;;;;;;;0.00;0.00;;;;;;;;;;10406677;28;20293;-68
2021/09/03 02:36:00;;;;;;;0.00;0.00;;;;;;;;;;10400160;28;20226;-70
2021/09/03 02:41:04;;;;;;;0.00;0.00;;;;;;;;;;10403041;28;20197;-71
2021/09/03 02:46:07;;;;;;;0.00;0.00;;;;;;;;;;10399213;28;20569;-70
2021/09/03 02:51:10;;;;;;;0.00;0.00;;;;;;;;;;10399465;28;20230;-70
2021/09/03 02:56:14;;;;;;;0.00;0.00;;;;;;;;;;10397589;28;20693;-72
2021/09/03 03:01:17;;;;;;;0.00;0.00;;;;;;;;;;10400524;28;20617;-70
2021/09/03 03:06:20;;;;;;;0.00;0.00;;;;;;;;;;10396879;28;20221;-70
2021/09/03 03:11:24;;;;;;;0.00;0.00;;;;;;;;;;10399334;28;20556;-72
2021/09/03 03:16:27;;;;;;;0.00;0.00;;;;;;;;;;10404607;28;20226;-70
2021/09/03 03:21:30;;;;;;;0.00;0.00;;;;;;;;;;10403864;28;20300;-72
2021/09/03 03:26:34;;;;;;;0.00;0.00;;;;;;;;;;10400954;28;20224;-71
2021/09/03 03:31:37;;;;;;;0.00;0.00;;;;;;;;;;10399759;28;20648;-71
2021/09/03 03:36:40;;;;;;;0.00;0.00;;;;;;;;;;10397040;28;20225;-70
2021/09/03 03:41:44;;;;;;;0.00;0.00;;;;;;;;;;10392335;28;20198;-69
2021/09/03 03:46:47;;;;;;;0.00;0.00;;;;;;;;;;10400075;28;20222;-69
2021/09/03 03:51:50;;;;;;;0.00;0.00;;;;;;;;;;10396237;28;20221;-69
2021/09/03 03:56:54;;;;;;;0.00;0.00;;;;;;;;;;10399123;28;20224;-69
2021/09/03 04:01:57;;;;;;;0.00;0.00;;;;;;;;;;10399558;28;20186;-69
2021/09/03 04:07:01;;;;;;;0.00;0.00;;;;;;;;;;10399108;28;20214;-70
2021/09/03 04:12:05;;;;;;;0.00;0.00;;;;;;;;;;10399187;28;20220;-69
2021/09/03 04:17:09;;;;;;;0.00;0.00;;;;;;;;;;10397281;28;20244;-70
2021/09/03 04:22:11;;;;;;;0.03;0.03;;;;;;;;;;10397927;28;20185;-69
2021/09/03 04:27:20;;;;;;;0.17;0.00;;;;;;;;;;10397238;28;20352;-70
2021/09/03 04:32:23;;;;;;;0.00;0.00;;;;;;;;;;10395662;28;20190;-71
2021/09/03 04:37:26;;;;;;;0.00;0.00;;;;;;;;;;10395822;28;20735;-70
2021/09/03 04:42:30;;;;;;;0.00;0.00;;;;;;;;;;10395945;28;20444;-69
2021/09/03 04:47:34;;;;;;;0.00;0.00;;;;;;;;;;10387788;28;20725;-68
2021/09/03 04:52:38;;;;;;;0.00;0.00;;;;;;;;;;10391856;28;20202;-70
2021/09/03 04:57:43;;;;;;;0.00;0.00;;;;;;;;;;10388425;28;20213;-70
2021/09/03 05:02:48;;;;;;;0.00;0.00;;;;;;;;;;10391353;28;20551;-69
2021/09/03 05:07:51;;;;;;;0.00;0.00;;;;;;;;;;10392281;28;20331;-70
2021/09/03 05:12:55;;;;;;;0.00;0.00;;;;;;;;;;10382555;28;20198;-70
2021/09/03 05:17:58;;;;;;;0.00;0.00;;;;;;;;;;10391390;28;20210;-71
2021/09/03 05:23:01;;;;;;;0.00;0.00;;;;;;;;;;10391265;28;20236;-71
2021/09/03 05:28:06;;;;;;;0.00;0.00;;;;;;;;;;10389911;28;20220;-70
2021/09/03 05:33:09;;;;;;;0.00;0.00;;;;;;;;;;10387554;28;20516;-70
2021/09/03 05:38:12;;;;;;;0.00;0.00;;;;;;;;;;10387147;28;20363;-70
2021/09/03 05:43:20;;;;;;;0.00;0.00;;;;;;;;;;10394694;28;20194;-71
2021/09/03 05:48:23;;;;;;;0.00;0.00;;;;;;;;;;10391120;28;20220;-71
2021/09/03 05:53:26;;;;;;;0.00;0.00;;;;;;;;;;10391028;28;20259;-67
2021/09/03 05:58:30;;;;;;;0.00;0.00;;;;;;;;;;10389429;28;20194;-69
2021/09/03 06:03:33;;;;;;;0.10;0.10;;;;;;;;;;10394492;28;20232;-70
2021/09/03 06:08:35;;;;;;;0.00;0.00;;;;;;;;;;10395329;28;20305;-69
2021/09/03 06:13:40;;;;;;;0.00;0.00;;;;;;;;;;10402588;28;20213;-69
2021/09/03 06:18:43;;;;;;;0.00;0.00;;;;;;;;;;10403692;28;20194;-67
2021/09/03 06:23:45;;;;;;;0.00;0.00;;;;;;;;;;10399423;28;20263;-72
2021/09/03 06:28:50;;;;;;;0.00;0.00;;;;;;;;;;10403277;28;20217;-69
2021/09/03 06:33:53;;;;;;;0.00;0.00;;;;;;;;;;10395350;28;20640;-71
2021/09/03 06:38:55;;;;;;;0.00;0.00;;;;;;;;;;10399127;28;20240;-70
2021/09/03 06:44:00;;;;;;;0.10;0.10;;;;;;;;;;10392176;28;20213;-70
2021/09/03 06:49:02;;;;;;;0.10;0.10;;;;;;;;;;10398484;28;20773;-71
2021/09/03 06:54:05;;;;;;;0.10;0.10;;;;;;;;;;10402941;28;20220;-69
2021/09/03 06:59:09;;;;;;;0.10;0.10;;;;;;;;;;10398839;28;20206;-70
2021/09/03 07:04:12;;;;;;;0.10;0.10;;;;;;;;;;10413934;28;20226;-70
2021/09/03 07:09:15;;;;;;;0.20;0.20;;;;;;;;;;10393087;28;20290;-69
2021/09/03 07:14:20;;;;;;;0.20;0.20;;;;;;;;;;10392346;28;20312;-68
2021/09/03 07:19:23;;;;;;;0.20;0.20;;;;;;;;;;10396066;28;20197;-71
2021/09/03 07:24:26;;;;;;;0.25;0.25;;;;;;;;;;10398112;28;20213;-68
2021/09/03 07:29:30;;;;;;;0.20;0.20;;;;;;;;;;10398152;28;20461;-70
2021/09/03 07:34:33;;;;;;;0.28;0.28;;;;;;;;;;10401099;28;20600;-70
2021/09/03 07:39:36;;;;;;;0.30;0.30;;;;;;;;;;10393680;28;20281;-70
2021/09/03 07:44:40;;;;;;;0.30;0.30;;;;;;;;;;10391927;28;20221;-69
2021/09/03 07:49:43;;;;;;;0.30;0.30;;;;;;;;;;10395159;28;20225;-70
2021/09/03 07:54:46;;;;;;;0.30;0.30;;;;;;;;;;10398647;28;20750;-71
2021/09/03 07:59:51;;;;;;;0.30;0.30;;;;;;;;;;10390462;28;20241;-72
2021/09/03 08:04:53;;;;;;;0.40;0.40;;;;;;;;;;10392652;28;20248;-71
2021/09/03 08:09:56;;;;;;;0.35;0.35;;;;;;;;;;10400178;28;20202;-71
2021/09/03 08:15:01;;;;;;;0.32;0.32;;;;;;;;;;10389495;28;20256;-69
2021/09/03 08:20:05;;;;;;;0.40;0.40;;;;;;;;;;10398166;28;20198;-71
2021/09/03 08:25:08;;;;;;;0.40;0.40;;;;;;;;;;10392389;28;20223;-70
2021/09/03 08:30:13;;;;;;;0.50;0.50;;;;;;;;;;10387145;28;20253;-70
2021/09/03 08:35:16;;;;;;;0.50;0.50;;;;;;;;;;10389917;28;20364;-71
2021/09/03 08:40:19;;;;;;;0.50;0.50;;;;;;;;;;10399795;28;20222;-71
2021/09/03 08:45:23;;;;;;;0.50;0.50;;;;;;;;;;10393284;28;20217;-70
2021/09/03 08:50:26;;;;;;;0.60;0.60;;;;;;;;;;10397536;28;20301;-71
2021/09/03 08:55:29;;;;;;;0.60;0.60;;;;;;;;;;10393873;28;20225;-72
2021/09/03 09:00:35;;;;;;;0.60;0.60;;;;;;;;;;10396506;28;20545;-73
2021/09/03 09:05:48;;;;;;;0.70;0.70;;;;;;;;;;10392393;28;20609;-70
2021/09/03 09:10:52;;;;;;;0.70;0.70;;;;;;;;;;10393298;28;20217;-69
2021/09/03 09:16:02;;;;;;;0.65;0.65;;;;;;;;;;10384394;28;20224;-69
2021/09/03 09:21:12;;;;;;;0.70;0.70;;;;;;;;;;10390924;28;20628;-70
2021/09/03 09:26:16;;;;;;;0.70;0.70;;;;;;;;;;10397839;28;20900;-70
2021/09/03 09:31:30;;;;;;;0.88;0.88;;;;;;;;;;10391381;28;20576;-71
2021/09/03 09:36:36;;;;;;;0.80;0.80;;;;;;;;;;10393663;28;20227;-70
2021/09/03 09:41:39;;;;;;;0.80;0.80;;;;;;;;;;10394871;28;20224;-70
2021/09/03 09:46:43;;;;;;;0.90;0.90;;;;;;;;;;10382915;28;20473;-71
2021/09/03 09:51:49;;;;;;;0.80;0.80;;;;;;;;;;10396808;28;20762;-69
2021/09/03 09:56:53;;;;;;;0.80;0.80;;;;;;;;;;10393066;28;20290;-70
2021/09/03 10:01:57;;;;;;;0.90;0.90;;;;;;;;;;10397397;28;20265;-72
2021/09/03 10:07:01;;;;;;;0.90;0.90;;;;;;;;;;10393647;28;21157;-69
2021/09/03 10:12:05;;;;;;;0.90;0.90;;;;;;;;;;10392105;28;20670;-72
2021/09/03 10:17:11;;;;;;;0.90;0.90;;;;;;;;;;10392425;28;20271;-71
2021/09/03 10:22:16;;;;;;;0.90;0.90;;;;;;;;;;10395451;28;20618;-69
2021/09/03 10:27:18;;;;;;;0.90;0.90;;;;;;;;;;10388012;28;20263;-70
2021/09/03 10:32:26;;;;;;;0.80;0.80;;;;;;;;;;10377882;28;20251;-72
2021/09/03 10:37:33;;;;;;;0.90;0.90;;;;;;;;;;10388063;28;20696;-69
2021/09/03 10:42:48;;;;;;;0.90;0.90;;;;;;;;;;10396804;28;20281;-70
2021/09/03 10:48:13;;;;;;;0.90;0.90;;;;;;;;;;10389052;28;20734;-70
2021/09/03 10:53:19;;;;;;;0.88;0.88;;;;;;;;;;10389007;28;20298;-68
2021/09/03 10:58:46;;;;;;;0.90;0.90;;;;;;;;;;10395273;28;20285;-69
2021/09/03 11:03:50;;;;;;;0.70;0.70;;;;;;;;;;10376418;28;20271;-70
2021/09/03 11:08:55;;;;;;;0.80;0.80;;;;;;;;;;10396813;28;20576;-71
2021/09/03 11:13:59;;;;;;;0.90;0.90;;;;;;;;;;10395077;28;20226;-71
2021/09/03 11:19:06;;;;;;;0.80;0.80;;;;;;;;;;10394581;28;20205;-70
2021/09/03 11:24:11;;;;;;;0.90;0.90;;;;;;;;;;10395318;28;20205;-70
2021/09/03 11:29:18;;;;;;;0.90;0.90;;;;;;;;;;10395489;28;20192;-70
2021/09/03 11:34:36;;;;;;;0.90;0.90;;;;;;;;;;10388482;28;20291;-71
2021/09/03 11:39:40;;;;;;;0.80;0.80;;;;;;;;;;10397211;28;20200;-71
2021/09/03 11:44:48;;;;;;;0.80;0.80;;;;;;;;;;10394352;28;20250;-69
2021/09/03 11:49:51;;;;;;;0.90;0.90;;;;;;;;;;10395050;28;22621;-70
2021/09/03 11:54:56;;;;;;;0.80;0.80;;;;;;;;;;10390288;28;20701;-71
2021/09/03 11:59:59;;;;;;;0.70;0.70;;;;;;;;;;10390286;28;20186;-70
2021/09/03 12:05:02;;;;;;;0.70;0.70;;;;;;;;;;10413951;28;20267;-69
2021/09/03 12:10:08;;;;;;;0.70;0.70;;;;;;;;;;10387889;28;20255;-70
2021/09/03 12:15:18;;;;;;;0.70;0.70;;;;;;;;;;10390417;28;20213;-71
2021/09/03 12:20:21;;;;;;;0.65;0.65;;;;;;;;;;10389635;28;20198;-70
2021/09/03 12:25:32;;;;;;;0.65;0.65;;;;;;;;;;10389759;28;20582;-68
2021/09/03 12:30:35;;;;;;;0.60;0.60;;;;;;;;;;10394625;28;20202;-71
2021/09/03 12:35:38;;;;;;;0.70;0.70;;;;;;;;;;10389770;28;20246;-70
2021/09/03 12:40:42;;;;;;;0.65;0.65;;;;;;;;;;10392200;28;20190;-71
2021/09/03 12:45:45;;;;;;;0.60;0.60;;;;;;;;;;10394680;28;20217;-70
2021/09/03 12:50:48;;;;;;;0.52;0.52;;;;;;;;;;10398861;28;20705;-71
2021/09/03 12:55:52;;;;;;;0.60;0.60;;;;;;;;;;10393783;28;20217;-69
2021/09/03 13:00:55;;;;;;;0.60;0.60;;;;;;;;;;10399276;28;20626;-71
2021/09/03 13:05:59;;;;;;;0.50;0.50;;;;;;;;;;10386731;28;20300;-71
2021/09/03 13:11:18;;;;;;;0.45;0.45;;;;;;;;;;10395170;28;20281;-70
2021/09/03 13:16:20;;;;;;;0.50;0.50;;;;;;;;;;10396062;28;20214;-72
2021/09/03 13:21:23;;;;;;;0.40;0.40;;;;;;;;;;10394017;28;20625;-71
2021/09/03 13:26:28;;;;;;;0.40;0.40;;;;;;;;;;10398332;28;20272;-70
2021/09/03 13:31:32;;;;;;;0.40;0.40;;;;;;;;;;10393765;28;20233;-70
2021/09/03 13:36:36;;;;;;;0.40;0.40;;;;;;;;;;10389955;28;20220;-71
2021/09/03 13:41:40;;;;;;;0.40;0.40;;;;;;;;;;10398769;28;20658;-69
2021/09/03 13:46:43;;;;;;;0.40;0.40;;;;;;;;;;10395464;28;20229;-70
2021/09/03 13:51:46;;;;;;;0.38;0.38;;;;;;;;;;10398927;28;20214;-71
2021/09/03 13:56:50;;;;;;;0.40;0.40;;;;;;;;;;10395988;28;20217;-70
2021/09/03 14:01:53;;;;;;;0.30;0.30;;;;;;;;;;10388076;28;20212;-70
2021/09/03 14:06:56;;;;;;;0.30;0.30;;;;;;;;;;10391219;28;20586;-70
2021/09/03 14:12:00;;;;;;;0.30;0.30;;;;;;;;;;10392775;28;20237;-70
2021/09/03 14:17:03;;;;;;;0.30;0.30;;;;;;;;;;10396080;28;20245;-69
2021/09/03 14:22:06;;;;;;;0.30;0.30;;;;;;;;;;10398579;28;20431;-70
2021/09/03 14:27:13;;;;;;;0.30;0.30;;;;;;;;;;10400807;28;20233;-70
2021/09/03 14:32:15;;;;;;;0.30;0.30;;;;;;;;;;10401851;28;20228;-68
2021/09/03 14:37:18;;;;;;;0.20;0.20;;;;;;;;;;10393178;28;20229;-70
2021/09/03 14:42:22;;;;;;;0.20;0.20;;;;;;;;;;10398460;28;20222;-71
2021/09/03 14:47:25;;;;;;;0.20;0.20;;;;;;;;;;10399006;28;20291;-71
2021/09/03 14:52:28;;;;;;;0.30;0.30;;;;;;;;;;10389995;28;20227;-70
2021/09/03 14:57:33;;;;;;;0.20;0.20;;;;;;;;;;10392803;28;20312;-71
2021/09/03 15:02:36;;;;;;;0.20;0.20;;;;;;;;;;10392604;28;20192;-72
2021/09/03 15:07:39;;;;;;;0.20;0.20;;;;;;;;;;10396345;28;20740;-73
2021/09/03 15:12:43;;;;;;;0.20;0.20;;;;;;;;;;10387613;28;20602;-70
2021/09/03 15:17:46;;;;;;;0.20;0.20;;;;;;;;;;10386510;28;20217;-73
2021/09/03 15:22:49;;;;;;;0.20;0.20;;;;;;;;;;10388634;28;20622;-73
2021/09/03 15:27:54;;;;;;;0.17;0.17;;;;;;;;;;10389940;28;20217;-71
2021/09/03 15:32:57;;;;;;;0.10;0.10;;;;;;;;;;10391706;28;20653;-70
2021/09/03 15:38:01;;;;;;;0.20;0.20;;;;;;;;;;10395013;28;20230;-70
2021/09/03 15:43:05;;;;;;;0.20;0.20;;;;;;;;;;10396577;28;20654;-70
2021/09/03 15:48:08;;;;;;;0.20;0.20;;;;;;;;;;10395873;28;20217;-70
2021/09/03 15:53:12;;;;;;;0.20;0.20;;;;;;;;;;10400725;28;20213;-70
2021/09/03 15:58:16;;;;;;;0.20;0.20;;;;;;;;;;10396930;28;20221;-72
2021/09/03 16:03:19;;;;;;;0.10;0.10;;;;;;;;;;10391199;28;20193;-69
2021/09/03 16:08:23;;;;;;;0.10;0.10;;;;;;;;;;10394599;28;20281;-73
2021/09/03 16:13:27;;;;;;;0.10;0.10;;;;;;;;;;10409563;28;20198;-69
2021/09/03 16:18:30;;;;;;;0.10;0.10;;;;;;;;;;10396899;28;20210;-70
2021/09/03 16:23:33;;;;;;;0.20;0.20;;;;;;;;;;10396060;28;20276;-69
2021/09/03 16:28:38;;;;;;;0.10;0.10;;;;;;;;;;10394825;28;20194;-72
2021/09/03 16:33:40;;;;;;;0.10;0.10;;;;;;;;;;10394809;28;20226;-74
2021/09/03 16:38:43;;;;;;;0.13;0.13;;;;;;;;;;10401455;28;20210;-70
2021/09/03 16:43:47;;;;;;;0.20;0.20;;;;;;;;;;10399026;28;20294;-72
2021/09/03 16:48:50;;;;;;;0.10;0.10;;;;;;;;;;10394853;28;20264;-70
2021/09/03 16:53:53;;;;;;;0.10;0.10;;;;;;;;;;10393263;28;20654;-70
2021/09/03 16:58:57;;;;;;;0.10;0.10;;;;;;;;;;10394744;28;20196;-70
2021/09/03 17:04:00;;;;;;;0.10;0.10;;;;;;;;;;10394763;28;20216;-71
2021/09/03 17:09:03;;;;;;;0.10;0.10;;;;;;;;;;10390952;28;20197;-71
2021/09/03 17:14:07;;;;;;;0.10;0.10;;;;;;;;;;10393885;28;20585;-71
2021/09/03 17:19:10;;;;;;;0.10;0.10;;;;;;;;;;10394308;28;20626;-71
2021/09/03 17:24:13;;;;;;;0.10;0.10;;;;;;;;;;10386471;28;20213;-70
2021/09/03 17:29:17;;;;;;;0.10;0.10;;;;;;;;;;10392633;28;20217;-69
2021/09/03 17:34:20;;;;;;;0.00;0.00;;;;;;;;;;10390584;28;20217;-68
2021/09/03 17:39:23;;;;;;;0.10;0.10;;;;;;;;;;10403142;28;20209;-70
2021/09/03 17:44:27;;;;;;;0.10;0.10;;;;;;;;;;10395322;28;20214;-71
2021/09/03 17:49:30;;;;;;;0.10;0.10;;;;;;;;;;10393110;28;20268;-70
2021/09/03 17:54:34;;;;;;;0.10;0.10;;;;;;;;;;10391898;28;20243;-71
2021/09/03 17:59:38;;;;;;;0.10;0.10;;;;;;;;;;10394331;28;20190;-71
2021/09/03 18:04:41;;;;;;;0.10;0.10;;;;;;;;;;10397857;28;20287;-71
2021/09/03 18:09:44;;;;;;;0.10;0.10;;;;;;;;;;10397969;28;20210;-70
2021/09/03 18:14:48;;;;;;;0.10;0.10;;;;;;;;;;10396151;28;20268;-70
2021/09/03 18:19:51;;;;;;;0.10;0.10;;;;;;;;;;10405146;28;20272;-69
2021/09/03 18:24:54;;;;;;;0.10;0.10;;;;;;;;;;10400294;28;20220;-71
2021/09/03 18:29:58;;;;;;;0.00;0.00;;;;;;;;;;10402614;28;20518;-69
2021/09/03 18:35:01;;;;;;;0.00;0.00;;;;;;;;;;10401980;28;20295;-71
2021/09/03 18:40:05;;;;;;;0.10;0.10;;;;;;;;;;10401056;28;20220;-70
2021/09/03 18:45:09;;;;;;;0.10;0.10;;;;;;;;;;10400531;28;20324;-71
2021/09/03 18:50:12;;;;;;;0.03;0.03;;;;;;;;;;10399677;28;20213;-71
2021/09/03 18:55:17;;;;;;;0.03;0.03;;;;;;;;;;10397349;28;20214;-71
2021/09/03 19:00:22;;;;;;;0.10;0.10;;;;;;;;;;10398133;28;20190;-71
2021/09/03 19:05:24;;;;;;;0.00;0.00;;;;;;;;;;10402395;28;20280;-70
2021/09/03 19:10:27;;;;;;;0.10;0.10;;;;;;;;;;10390471;28;20256;-70
2021/09/03 19:15:32;;;;;;;0.00;0.00;;;;;;;;;;10398495;28;20737;-69
2021/09/03 19:20:37;;;;;;;0.00;0.00;;;;;;;;;;10400629;28;20426;-70
2021/09/03 19:25:43;;;;;;;0.00;0.00;;;;;;;;;;10399994;28;20280;-70
2021/09/03 19:30:48;;;;;;;0.00;0.00;;;;;;;;;;10400517;28;20197;-70
2021/09/03 19:35:51;;;;;;;0.00;0.00;;;;;;;;;;10399527;28;20593;-69
2021/09/03 19:40:54;;;;;;;0.00;0.00;;;;;;;;;;10396307;28;20182;-71
2021/09/03 19:45:58;;;;;;;0.00;0.00;;;;;;;;;;10399900;28;20290;-71
2021/09/03 19:51:01;;;;;;;0.00;0.00;;;;;;;;;;10398504;28;20205;-70
2021/09/03 19:56:04;;;;;;;0.00;0.00;;;;;;;;;;10393757;28;20237;-71
2021/09/03 20:01:08;;;;;;;0.03;0.03;;;;;;;;;;10398904;28;20198;-69
2021/09/03 20:06:12;;;;;;;0.10;0.10;;;;;;;;;;10398978;28;20689;-71
2021/09/03 20:11:15;;;;;;;0.07;0.07;;;;;;;;;;10398145;28;20194;-69
2021/09/03 20:16:19;;;;;;;0.00;0.00;;;;;;;;;;10397566;28;20589;-70
2021/09/03 20:21:22;;;;;;;0.00;0.00;;;;;;;;;;10394627;28;20217;-71
2021/09/03 20:26:25;;;;;;;0.00;0.00;;;;;;;;;;10395087;28;20220;-70
2021/09/03 20:31:29;;;;;;;0.00;0.00;;;;;;;;;;10392814;28;20286;-69
2021/09/03 20:36:32;;;;;;;0.00;0.00;;;;;;;;;;10396712;28;20221;-71
2021/09/03 20:41:35;;;;;;;0.00;0.00;;;;;;;;;;10384623;28;20252;-73
2021/09/03 20:46:39;;;;;;;0.00;0.00;;;;;;;;;;10395620;28;20206;-71
2021/09/03 20:51:42;;;;;;;0.10;0.10;;;;;;;;;;10385654;28;20835;-70
2021/09/03 20:56:45;;;;;;;0.00;0.00;;;;;;;;;;10388471;28;20760;-71
2021/09/03 21:01:50;;;;;;;0.00;0.00;;;;;;;;;;10389506;28;20236;-69
2021/09/03 21:06:53;;;;;;;0.00;0.00;;;;;;;;;;10394904;28;20210;-71
2021/09/03 21:11:56;;;;;;;0.03;0.03;;;;;;;;;;10385170;28;20202;-70
2021/09/03 21:17:00;;;;;;;0.00;0.00;;;;;;;;;;10412830;28;20222;-71
2021/09/03 21:22:03;;;;;;;0.00;0.00;;;;;;;;;;10380586;28;20194;-71
2021/09/03 21:27:06;;;;;;;0.00;0.00;;;;;;;;;;10384126;28;20221;-72
2021/09/03 21:32:10;;;;;;;0.00;0.00;;;;;;;;;;10385526;28;20557;-71
2021/09/03 21:37:13;;;;;;;0.00;0.00;;;;;;;;;;10395106;28;20217;-71
2021/09/03 21:42:16;;;;;;;0.00;0.00;;;;;;;;;;10396355;28;20569;-70
2021/09/03 21:47:20;;;;;;;0.00;0.00;;;;;;;;;;10391120;28;20320;-70
2021/09/03 21:52:23;;;;;;;0.00;0.00;;;;;;;;;;10394525;28;20241;-71
2021/09/03 21:57:26;;;;;;;0.00;0.00;;;;;;;;;;10395050;28;20237;-71
2021/09/03 22:02:30;;;;;;;0.00;0.00;;;;;;;;;;10392789;28;20205;-73
2021/09/03 22:07:33;;;;;;;0.00;0.00;;;;;;;;;;10396399;28;20206;-71
2021/09/03 22:12:36;;;;;;;0.00;0.00;;;;;;;;;;10386397;28;20229;-71
2021/09/03 22:17:40;;;;;;;0.00;0.00;;;;;;;;;;10396450;28;20682;-69
2021/09/03 22:22:43;;;;;;;0.00;0.00;;;;;;;;;;10393779;28;20565;-71
2021/09/03 22:27:46;;;;;;;0.00;0.00;;;;;;;;;;10396841;28;20218;-70
2021/09/03 22:32:50;;;;;;;0.00;0.00;;;;;;;;;;10393277;28;20201;-71
2021/09/03 22:37:53;;;;;;;0.10;0.10;;;;;;;;;;10392452;28;20229;-71
2021/09/03 22:42:56;;;;;;;0.00;0.00;;;;;;;;;;10398394;28;20190;-72
2021/09/03 22:48:00;;;;;;;0.00;0.00;;;;;;;;;;10399265;28;20218;-70
2021/09/03 22:53:03;;;;;;;0.00;0.00;;;;;;;;;;10399716;28;20200;-72
2021/09/03 22:58:06;;;;;;;0.00;0.00;;;;;;;;;;10402057;28;20275;-71
2021/09/03 23:03:10;;;;;;;0.00;0.00;;;;;;;;;;10404438;28;20340;-70
2021/09/03 23:08:13;;;;;;;0.00;0.00;;;;;;;;;;10404189;28;20213;-71
2021/09/03 23:13:16;;;;;;;0.00;0.00;;;;;;;;;;10399469;28;20194;-70
2021/09/03 23:18:20;;;;;;;0.00;0.00;;;;;;;;;;10397511;28;20369;-70
2021/09/03 23:23:23;;;;;;;0.00;0.00;;;;;;;;;;10400134;28;20190;-69
2021/09/03 23:28:26;;;;;;;0.00;0.00;;;;;;;;;;10397663;28;20206;-69
2021/09/03 23:33:30;;;;;;;0.00;0.00;;;;;;;;;;10394535;28;20190;-70
2021/09/03 23:38:33;;;;;;;0.00;0.00;;;;;;;;;;10397443;28;20670;-70
2021/09/03 23:43:36;;;;;;;0.00;0.00;;;;;;;;;;10394192;28;20319;-70
2021/09/03 23:48:40;;;;;;;0.00;0.00;;;;;;;;;;10399366;28;20193;-69
2021/09/03 23:53:43;;;;;;;0.00;0.00;;;;;;;;;;10402606;28;20225;-70
2021/09/03 23:58:46;;;;;;;0.00;0.00;;;;;;;;;;10401645;28;20602;-70
